createdAt,value
2023-02-17T00:01:32.447Z,27.00
2023-02-17T00:04:00.966Z,25.20
2023-02-17T00:06:30.213Z,27.70
2023-02-17T00:09:02.023Z,22.40
2023-02-17T00:11:31.156Z,23.20
2023-02-17T00:14:00.391Z,22.90
2023-02-17T00:16:28.597Z,23.30
2023-02-17T00:18:58.860Z,21.60
2023-02-17T00:21:29.155Z,25.50
2023-02-17T00:23:57.655Z,23.10
2023-02-17T00:26:25.853Z,23.20
2023-02-17T00:28:55.117Z,22.40
2023-02-17T00:31:25.202Z,25.50
2023-02-17T00:33:55.649Z,22.60
2023-02-17T00:36:24.101Z,24.70
2023-02-17T00:38:53.864Z,24.40
2023-02-17T00:41:22.696Z,21.30
2023-02-17T00:43:51.033Z,22.20
2023-02-17T00:46:19.128Z,25.80
2023-02-17T00:48:48.754Z,25.20
2023-02-17T00:51:17.394Z,25.90
2023-02-17T00:53:46.087Z,25.30
2023-02-17T00:56:14.428Z,25.80
2023-02-17T00:58:42.746Z,21.60
2023-02-17T01:01:11.431Z,23.50
2023-02-17T01:03:42.345Z,25.80
2023-02-17T01:06:11.654Z,30.30
2023-02-17T01:08:41.812Z,24.80
2023-02-17T01:11:17.786Z,22.00
2023-02-17T01:13:46.572Z,23.60
2023-02-17T01:16:23.386Z,23.10
2023-02-17T01:18:51.527Z,23.30
2023-02-17T01:21:22.682Z,27.90
2023-02-17T01:23:52.081Z,26.70
2023-02-17T01:26:22.087Z,30.80
2023-02-17T01:28:50.537Z,28.40
2023-02-17T01:31:19.095Z,23.60
2023-02-17T01:33:48.754Z,26.40
2023-02-17T01:36:17.952Z,24.90
2023-02-17T01:38:48.706Z,27.30
2023-02-17T01:41:21.059Z,26.10
2023-02-17T01:44:21.934Z,26.80
2023-02-17T01:46:51.466Z,23.70
2023-02-17T01:49:24.487Z,26.80
2023-02-17T01:52:04.237Z,29.50
2023-02-17T01:54:46.571Z,25.30
2023-02-17T01:57:16.767Z,26.70
2023-02-17T01:59:45.530Z,29.60
2023-02-17T02:02:13.747Z,24.40
2023-02-17T02:04:44.518Z,25.90
2023-02-17T02:07:26.171Z,26.20
2023-02-17T02:09:56.476Z,27.10
2023-02-17T02:12:35.759Z,30.70
2023-02-17T02:15:08.979Z,27.80
2023-02-17T02:17:59.262Z,32.60
2023-02-17T02:20:33.333Z,27.70
2023-02-17T02:23:26.566Z,28.80
2023-02-17T02:26:14.528Z,29.00
2023-02-17T02:28:55.090Z,26.70
2023-02-17T02:31:30.322Z,25.70
2023-02-17T02:34:04.553Z,32.00
2023-02-17T02:36:35.522Z,28.70
2023-02-17T02:39:16.410Z,29.00
2023-02-17T02:42:02.138Z,26.80
2023-02-17T02:44:34.702Z,31.10
2023-02-17T02:47:06.475Z,28.90
2023-02-17T02:49:35.952Z,30.90
2023-02-17T02:52:23.465Z,32.40
2023-02-17T02:55:14.401Z,31.40
2023-02-17T02:58:02.012Z,30.30
2023-02-17T03:00:46.527Z,32.10
2023-02-17T03:03:27.553Z,31.90
2023-02-17T03:06:00.549Z,29.60
2023-02-17T03:08:44.184Z,33.00
2023-02-17T03:11:12.359Z,30.50
2023-02-17T03:13:41.273Z,33.90
2023-02-17T03:16:14.790Z,34.90
2023-02-17T03:18:43.135Z,33.60
2023-02-17T03:21:14.573Z,35.10
2023-02-17T03:23:43.911Z,31.80
2023-02-17T03:26:12.145Z,35.50
2023-02-17T03:29:57.983Z,35.70
2023-02-17T03:32:26.056Z,33.80
2023-02-17T03:34:54.289Z,33.60
2023-02-17T03:37:22.307Z,32.40
2023-02-17T03:39:50.539Z,37.00
2023-02-17T03:42:18.615Z,36.60
2023-02-17T03:44:46.603Z,41.10
2023-02-17T03:47:14.622Z,36.80
2023-02-17T03:49:43.843Z,33.00
2023-02-17T03:52:11.934Z,35.90
2023-02-17T03:54:39.921Z,35.80
2023-02-17T03:57:07.914Z,35.10
2023-02-17T03:59:36.267Z,38.10
2023-02-17T04:02:09.345Z,36.90
2023-02-17T04:04:39.345Z,37.60
2023-02-17T04:07:07.816Z,36.80
2023-02-17T04:09:38.501Z,36.00
2023-02-17T04:12:06.713Z,31.90
2023-02-17T04:14:34.741Z,33.00
2023-02-17T04:17:03.010Z,33.80
2023-02-17T04:19:31.378Z,35.70
2023-02-17T04:22:00.895Z,30.00
2023-02-17T04:24:29.511Z,32.30
2023-02-17T04:26:58.139Z,33.10
2023-02-17T04:29:26.169Z,37.40
2023-02-17T04:31:54.152Z,34.20
2023-02-17T04:34:22.645Z,34.80
2023-02-17T04:36:50.660Z,34.50
2023-02-17T04:39:19.301Z,31.40
2023-02-17T04:41:47.459Z,30.20
2023-02-17T04:44:15.955Z,35.00
2023-02-17T04:46:44.086Z,32.30
2023-02-17T04:49:12.215Z,32.30
2023-02-17T04:51:40.581Z,36.20
2023-02-17T04:54:09.292Z,35.50
2023-02-17T04:56:38.609Z,35.80
2023-02-17T04:59:07.329Z,32.70
2023-02-17T05:01:35.650Z,32.90
2023-02-17T05:04:08.569Z,33.70
2023-02-17T05:06:37.711Z,36.40
2023-02-17T05:09:06.161Z,31.80
2023-02-17T05:11:34.972Z,35.20
2023-02-17T05:14:02.881Z,34.30
2023-02-17T05:16:30.865Z,33.70
2023-02-17T05:18:59.400Z,34.90
2023-02-17T05:21:29.942Z,30.50
2023-02-17T05:23:57.999Z,33.70
2023-02-17T05:26:25.992Z,34.00
2023-02-17T05:28:54.444Z,35.80
2023-02-17T05:31:22.902Z,37.00
2023-02-17T05:33:54.612Z,35.30
2023-02-17T05:36:23.211Z,35.30
2023-02-17T05:38:52.257Z,36.20
2023-02-17T05:41:20.479Z,37.40
2023-02-17T05:43:49.450Z,33.20
2023-02-17T05:46:17.721Z,34.60
2023-02-17T05:48:48.768Z,35.30
2023-02-17T05:51:17.422Z,43.50
2023-02-17T05:53:46.428Z,42.90
2023-02-17T05:56:14.762Z,44.40
2023-02-17T05:58:44.457Z,42.30
2023-02-17T06:01:13.262Z,45.80
2023-02-17T06:03:41.713Z,42.70
2023-02-17T06:06:09.787Z,37.40
2023-02-17T06:08:37.924Z,41.80
2023-02-17T06:11:11.300Z,44.10
2023-02-17T06:13:39.562Z,42.90
2023-02-17T06:16:08.376Z,42.10
2023-02-17T06:18:36.585Z,40.30
2023-02-17T06:21:05.138Z,39.50
2023-02-17T06:23:33.702Z,43.50
2023-02-17T06:26:01.648Z,38.10
2023-02-17T06:28:29.843Z,40.50
2023-02-17T06:30:57.996Z,38.40
2023-02-17T06:33:26.342Z,45.10
2023-02-17T06:35:54.696Z,38.30
2023-02-17T06:38:23.010Z,45.40
2023-02-17T06:40:51.292Z,40.70
2023-02-17T06:43:22.108Z,38.30
2023-02-17T06:45:50.301Z,39.20
2023-02-17T06:48:18.970Z,42.10
2023-02-17T06:50:49.810Z,37.80
2023-02-17T06:53:17.918Z,36.90
2023-02-17T06:55:46.033Z,32.10
2023-02-17T06:58:15.052Z,34.00
2023-02-17T07:00:43.099Z,35.20
2023-02-17T07:03:12.132Z,37.60
2023-02-17T07:05:40.342Z,34.00
2023-02-17T07:08:08.783Z,36.00
2023-02-17T07:10:37.714Z,37.70
2023-02-17T07:13:08.963Z,38.40
2023-02-17T07:15:37.862Z,39.40
2023-02-17T07:18:06.245Z,39.70
2023-02-17T07:20:35.856Z,39.80
2023-02-17T07:23:04.961Z,39.10
2023-02-17T07:25:34.464Z,39.20
2023-02-17T07:28:02.648Z,36.10
2023-02-17T07:30:32.726Z,40.40
2023-02-17T07:33:00.944Z,41.00
2023-02-17T07:35:29.214Z,40.00
2023-02-17T07:37:58.413Z,36.10
2023-02-17T07:40:27.097Z,38.00
2023-02-17T07:42:56.588Z,32.90
2023-02-17T07:45:24.666Z,35.00
2023-02-17T07:47:52.737Z,33.10
2023-02-17T07:50:20.764Z,41.60
2023-02-17T07:52:48.925Z,38.40
2023-02-17T07:55:17.129Z,40.30
2023-02-17T07:57:45.226Z,36.80
2023-02-17T08:00:14.222Z,39.00
2023-02-17T08:02:42.342Z,45.00
2023-02-17T08:05:10.810Z,37.90
2023-02-17T08:07:39.501Z,36.90
2023-02-17T08:10:27.374Z,37.50
2023-02-17T08:13:14.893Z,38.60
2023-02-17T08:15:43.135Z,37.50
2023-02-17T08:18:11.826Z,37.70
2023-02-17T08:20:40.249Z,42.60
2023-02-17T08:23:10.256Z,32.50
2023-02-17T08:25:38.349Z,34.50
2023-02-17T08:28:12.493Z,38.20
2023-02-17T08:30:40.996Z,34.30
2023-02-17T08:33:09.421Z,34.70
2023-02-17T08:35:39.128Z,31.10
2023-02-17T08:38:07.726Z,32.40
2023-02-17T08:40:36.910Z,32.20
2023-02-17T08:43:08.809Z,31.70
2023-02-17T08:45:38.299Z,29.00
2023-02-17T08:48:07.084Z,34.40
2023-02-17T08:50:35.438Z,33.50
2023-02-17T08:53:04.479Z,30.70
2023-02-17T08:55:47.302Z,31.30
2023-02-17T08:58:16.720Z,28.60
2023-02-17T09:00:46.332Z,31.50
2023-02-17T09:03:15.141Z,29.60
2023-02-17T09:05:46.360Z,36.30
2023-02-17T09:08:15.658Z,32.90
2023-02-17T09:10:46.628Z,34.80
2023-02-17T09:13:27.552Z,35.30
2023-02-17T09:15:56.789Z,37.50
2023-02-17T09:18:26.724Z,31.60
2023-02-17T09:20:55.542Z,31.80
2023-02-17T09:23:24.050Z,35.20
2023-02-17T09:26:02.652Z,36.10
2023-02-17T09:28:32.580Z,33.10
2023-02-17T09:31:14.683Z,33.40
2023-02-17T09:33:43.432Z,41.40
2023-02-17T09:36:13.685Z,35.90
2023-02-17T09:38:42.742Z,32.40
2023-02-17T09:41:24.845Z,44.00
2023-02-17T09:43:53.146Z,40.80
2023-02-17T09:46:36.081Z,43.10
2023-02-17T09:49:09.609Z,38.40
2023-02-17T09:51:49.054Z,38.60
2023-02-17T09:54:26.765Z,37.30
2023-02-17T09:56:55.998Z,34.70
2023-02-17T09:59:29.908Z,33.60
2023-02-17T10:01:58.424Z,39.30
2023-02-17T10:04:39.531Z,38.80
2023-02-17T10:07:12.434Z,35.70
2023-02-17T10:09:56.129Z,36.40
2023-02-17T10:12:26.312Z,31.70
2023-02-17T10:15:04.372Z,34.50
2023-02-17T10:17:47.581Z,31.40
2023-02-17T10:20:34.897Z,33.10
2023-02-17T10:23:07.681Z,32.30
2023-02-17T10:25:57.995Z,32.40
2023-02-17T10:28:52.100Z,28.80
2023-02-17T10:34:06.026Z,27.50
2023-02-17T10:36:54.621Z,30.30
2023-02-17T10:39:35.012Z,33.60
2023-02-17T10:42:03.841Z,30.30
2023-02-17T10:44:34.719Z,29.90
2023-02-17T10:47:02.785Z,32.00
2023-02-17T10:49:41.994Z,34.60
2023-02-17T10:52:12.125Z,31.20
2023-02-17T10:54:44.130Z,35.20
2023-02-17T10:57:12.877Z,28.50
2023-02-17T10:59:42.980Z,32.50
2023-02-17T11:02:34.616Z,33.20
2023-02-17T11:05:02.704Z,29.80
2023-02-17T11:07:38.886Z,34.80
2023-02-17T11:10:28.717Z,33.30
2023-02-17T11:12:58.853Z,34.90
2023-02-17T11:15:51.267Z,31.60
2023-02-17T11:18:21.716Z,36.50
2023-02-17T11:20:50.409Z,36.20
2023-02-17T11:23:23.152Z,36.70
2023-02-17T11:26:03.810Z,44.20
2023-02-17T11:28:32.022Z,41.40
2023-02-17T11:31:02.790Z,36.90
2023-02-17T11:33:38.313Z,37.90
2023-02-17T11:36:07.680Z,35.70
2023-02-17T11:38:40.082Z,39.60
2023-02-17T11:41:09.586Z,40.60
2023-02-17T11:43:40.015Z,41.30
2023-02-17T11:46:18.032Z,41.90
2023-02-17T11:49:07.760Z,45.30
2023-02-17T11:51:43.688Z,41.40
2023-02-17T11:54:18.086Z,44.00
2023-02-17T11:57:26.397Z,41.60
2023-02-17T12:00:20.875Z,40.10
2023-02-17T12:03:10.212Z,42.70
2023-02-17T12:05:53.783Z,44.10
2023-02-17T12:08:38.507Z,41.50
2023-02-17T12:11:37.584Z,39.20
2023-02-17T12:14:29.735Z,42.80
2023-02-17T12:17:06.404Z,41.10
2023-02-17T12:20:04.804Z,42.30
2023-02-17T12:22:39.069Z,41.00
2023-02-17T12:25:16.632Z,44.50
2023-02-17T12:28:06.823Z,41.30
2023-02-17T12:30:39.217Z,32.90
2023-02-17T12:33:13.381Z,34.20
2023-02-17T12:35:51.188Z,39.40
2023-02-17T12:39:16.031Z,30.70
2023-02-17T12:41:51.370Z,33.00
2023-02-17T12:44:35.133Z,34.40
2023-02-17T12:47:10.278Z,35.20
2023-02-17T12:49:48.848Z,32.20
2023-02-17T12:52:20.020Z,34.00
2023-02-17T12:54:53.061Z,31.90
2023-02-17T12:58:00.814Z,36.30
2023-02-17T13:00:29.892Z,39.60
2023-02-17T13:02:59.003Z,37.30
2023-02-17T13:05:43.615Z,34.90
2023-02-17T13:08:32.188Z,36.90
2023-02-17T13:11:10.924Z,30.50
2023-02-17T13:13:38.932Z,35.30
2023-02-17T13:16:11.995Z,33.40
2023-02-17T13:18:44.648Z,37.60
2023-02-17T13:21:25.111Z,37.70
2023-02-17T13:24:14.816Z,37.80
2023-02-17T13:26:43.814Z,39.50
2023-02-17T13:29:19.478Z,34.90
2023-02-17T13:31:53.063Z,32.90
2023-02-17T13:34:26.223Z,36.70
2023-02-17T13:36:54.733Z,41.10
2023-02-17T13:39:26.884Z,40.10
2023-02-17T13:41:59.247Z,38.60
2023-02-17T13:44:33.999Z,42.40
2023-02-17T13:47:04.060Z,39.70
2023-02-17T13:49:35.368Z,42.80
2023-02-17T13:52:08.514Z,37.50
2023-02-17T13:54:37.522Z,41.20
2023-02-17T13:57:05.806Z,43.70
2023-02-17T13:59:37.044Z,41.40
2023-02-17T14:02:35.015Z,38.80
2023-02-17T14:05:28.583Z,45.70
2023-02-17T14:08:00.568Z,43.00
2023-02-17T14:10:28.570Z,44.80
2023-02-17T14:12:58.174Z,38.20
2023-02-17T14:15:27.982Z,40.20
2023-02-17T14:17:56.142Z,42.80
2023-02-17T14:20:32.861Z,37.70
2023-02-17T14:23:14.203Z,38.90
2023-02-17T14:25:46.573Z,35.30
2023-02-17T14:28:26.878Z,36.50
2023-02-17T14:30:56.236Z,33.90
2023-02-17T14:33:25.084Z,36.10
2023-02-17T14:35:57.882Z,35.00
2023-02-17T14:38:35.323Z,33.80
2023-02-17T14:41:05.225Z,36.30
2023-02-17T14:43:33.528Z,36.40
2023-02-17T14:46:01.540Z,41.50
2023-02-17T14:48:29.956Z,39.10
2023-02-17T14:50:58.615Z,39.80
2023-02-17T14:53:32.799Z,47.20
2023-02-17T14:56:09.013Z,44.80
2023-02-17T14:58:37.269Z,40.10
2023-02-17T15:01:05.962Z,40.80
2023-02-17T15:03:34.244Z,43.50
2023-02-17T15:06:02.515Z,41.60
2023-02-17T15:08:33.638Z,44.80
2023-02-17T15:11:02.447Z,51.50
2023-02-17T15:13:31.861Z,49.10
2023-02-17T15:16:08.364Z,52.80
2023-02-17T15:18:37.606Z,50.40
2023-02-17T15:21:28.938Z,50.90
2023-02-17T15:24:19.196Z,58.90
2023-02-17T15:26:48.375Z,49.70
2023-02-17T15:29:27.737Z,46.40
2023-02-17T15:32:00.041Z,50.20
2023-02-17T15:34:33.615Z,54.30
2023-02-17T15:37:01.973Z,45.60
2023-02-17T15:39:30.365Z,43.90
2023-02-17T15:42:00.794Z,40.80
2023-02-17T15:47:50.652Z,40.10
2023-02-17T15:50:22.881Z,39.40
2023-02-17T15:52:50.962Z,36.90
2023-02-17T15:55:20.951Z,46.70
2023-02-17T15:57:51.391Z,40.80
2023-02-17T16:00:21.134Z,42.50
2023-02-17T16:02:49.649Z,40.80
2023-02-17T16:05:19.109Z,43.40
2023-02-17T16:07:48.265Z,44.60
2023-02-17T16:10:21.062Z,40.10
2023-02-17T16:12:50.652Z,43.70
2023-02-17T16:15:20.813Z,42.10
2023-02-17T16:17:52.711Z,44.30
2023-02-17T16:20:26.267Z,37.60
2023-02-17T16:22:54.339Z,38.60
2023-02-17T16:25:45.408Z,39.10
2023-02-17T16:28:20.169Z,40.50
2023-02-17T16:30:49.599Z,40.10
2023-02-17T16:33:17.814Z,40.50
2023-02-17T16:35:46.077Z,41.70
2023-02-17T16:38:21.568Z,33.90
2023-02-17T16:40:52.619Z,41.00
2023-02-17T16:43:22.982Z,41.00
2023-02-17T16:45:59.120Z,39.50
2023-02-17T16:48:29.186Z,36.70
2023-02-17T16:50:57.451Z,32.80
2023-02-17T16:53:26.008Z,32.80
2023-02-17T16:55:55.176Z,37.90
2023-02-17T16:58:24.646Z,38.90
2023-02-17T17:00:54.298Z,33.50
2023-02-17T17:03:22.718Z,31.70
2023-02-17T17:05:51.922Z,38.80
2023-02-17T17:08:21.908Z,33.80
2023-02-17T17:10:53.384Z,39.90
2023-02-17T17:13:23.915Z,39.60
2023-02-17T17:15:52.199Z,35.60
2023-02-17T17:18:21.453Z,35.30
2023-02-17T17:20:49.897Z,42.40
2023-02-17T17:23:20.319Z,41.10
2023-02-17T17:25:48.806Z,38.90
2023-02-17T17:28:19.144Z,42.90
2023-02-17T17:30:48.642Z,42.40
2023-02-17T17:33:16.894Z,35.30
2023-02-17T17:35:46.186Z,37.40
2023-02-17T17:38:15.647Z,36.40
2023-02-17T17:40:53.618Z,39.30
2023-02-17T17:43:22.968Z,37.10
2023-02-17T17:45:51.128Z,37.30
2023-02-17T17:48:19.746Z,40.90
2023-02-17T17:50:49.105Z,42.30
2023-02-17T17:53:17.306Z,43.80
2023-02-17T17:55:46.610Z,40.10
2023-02-17T17:58:16.376Z,37.50
2023-02-17T18:00:44.386Z,41.00
2023-02-17T18:03:12.592Z,42.00
2023-02-17T18:05:40.664Z,40.40
2023-02-17T18:08:09.523Z,43.30
2023-02-17T18:10:38.524Z,31.60
2023-02-17T18:13:09.136Z,40.80
2023-02-17T18:15:38.410Z,39.50
2023-02-17T18:18:06.662Z,40.60
2023-02-17T18:20:34.992Z,42.00
2023-02-17T18:23:03.220Z,42.10
2023-02-17T18:25:32.160Z,42.70
2023-02-17T18:28:00.703Z,43.40
2023-02-17T18:30:29.194Z,44.50
2023-02-17T18:32:58.560Z,45.50
2023-02-17T18:35:27.045Z,43.70
2023-02-17T18:37:55.332Z,43.30
2023-02-17T18:40:23.905Z,42.80
2023-02-17T18:42:52.287Z,46.40
2023-02-17T18:45:20.978Z,42.20
2023-02-17T18:47:49.127Z,47.40
2023-02-17T18:50:18.236Z,47.30
2023-02-17T18:52:47.136Z,49.10
2023-02-17T18:55:15.901Z,46.60
2023-02-17T18:57:45.017Z,45.40
2023-02-17T19:00:15.742Z,43.50
2023-02-17T19:02:46.259Z,44.70
2023-02-17T19:05:15.375Z,49.10
2023-02-17T19:07:46.854Z,45.60
2023-02-17T19:10:15.954Z,40.30
2023-02-17T19:12:46.335Z,46.90
2023-02-17T19:15:21.172Z,45.30
2023-02-17T19:17:49.332Z,49.00
2023-02-17T19:20:19.119Z,41.90
2023-02-17T19:22:47.216Z,43.80
2023-02-17T19:25:16.117Z,42.60
2023-02-17T19:27:44.589Z,42.80
2023-02-17T19:30:13.256Z,46.50
2023-02-17T19:32:41.871Z,41.90
2023-02-17T19:35:11.685Z,43.40
2023-02-17T19:37:40.527Z,40.70
2023-02-17T19:40:10.140Z,45.70
2023-02-17T19:42:40.430Z,46.60
2023-02-17T19:45:09.490Z,42.60
2023-02-17T19:47:37.882Z,42.40
2023-02-17T19:50:07.361Z,45.40
2023-02-17T19:52:37.311Z,52.20
2023-02-17T19:55:06.800Z,41.20
2023-02-17T19:57:35.184Z,45.00
2023-02-17T20:00:04.885Z,48.80
2023-02-17T20:02:34.444Z,54.90
2023-02-17T20:05:03.710Z,52.50
2023-02-17T20:07:32.178Z,52.20
2023-02-17T20:10:00.432Z,53.90
2023-02-17T20:12:28.930Z,50.50
2023-02-17T20:14:57.387Z,50.70
2023-02-17T20:17:25.486Z,45.50
2023-02-17T20:19:54.172Z,42.80
2023-02-17T20:22:22.560Z,39.70
2023-02-17T20:24:51.136Z,41.70
2023-02-17T20:27:19.820Z,42.60
2023-02-17T20:29:48.270Z,38.20
2023-02-17T20:32:16.330Z,43.40
2023-02-17T20:34:44.813Z,40.90
2023-02-17T20:37:17.606Z,41.10
2023-02-17T20:39:46.887Z,40.60
2023-02-17T20:42:15.518Z,39.80
2023-02-17T20:44:44.945Z,43.40
2023-02-17T20:47:13.328Z,40.90
2023-02-17T20:49:43.520Z,40.60
2023-02-17T20:52:11.795Z,40.00
2023-02-17T20:54:40.698Z,42.70
2023-02-17T20:57:15.332Z,40.10
2023-02-17T20:59:45.868Z,38.10
2023-02-17T21:02:14.337Z,43.20
2023-02-17T21:04:42.603Z,43.50
2023-02-17T21:07:11.227Z,42.90
2023-02-17T21:09:45.426Z,43.00
2023-02-17T21:12:14.036Z,45.00
2023-02-17T21:14:42.102Z,46.60
2023-02-17T21:17:10.623Z,42.80
2023-02-17T21:19:40.752Z,42.80
2023-02-17T21:22:08.784Z,50.70
2023-02-17T21:24:37.520Z,46.30
2023-02-17T21:27:06.248Z,46.10
2023-02-17T21:29:34.458Z,41.00
2023-02-17T21:32:02.603Z,43.20
2023-02-17T21:34:30.756Z,45.20
2023-02-17T21:36:59.010Z,50.60
2023-02-17T21:39:27.150Z,43.20
2023-02-17T21:41:55.303Z,54.90
2023-02-17T21:44:58.957Z,49.80
2023-02-17T21:47:27.038Z,50.30
2023-02-17T21:49:55.747Z,59.50
2023-02-17T21:52:23.754Z,51.90
2023-02-17T21:54:53.301Z,52.60
2023-02-17T21:57:21.297Z,60.00
2023-02-17T21:59:53.768Z,54.80
2023-02-17T22:02:21.686Z,53.50
2023-02-17T22:04:49.769Z,60.50
2023-02-17T22:07:18.148Z,58.40
2023-02-17T22:09:46.414Z,69.40
2023-02-17T22:12:14.689Z,63.80
2023-02-17T22:14:42.846Z,55.00
2023-02-17T22:17:14.005Z,67.50
2023-02-17T22:19:42.024Z,57.50
2023-02-17T22:22:10.054Z,60.50
2023-02-17T22:24:38.242Z,58.00
2023-02-17T22:27:06.250Z,64.60
2023-02-17T22:29:34.939Z,67.40
2023-02-17T22:32:03.167Z,65.20
2023-02-17T22:34:32.656Z,60.30
2023-02-17T22:37:00.640Z,59.10
2023-02-17T22:39:28.811Z,64.10
2023-02-17T22:41:57.293Z,62.50
2023-02-17T22:44:25.357Z,60.70
2023-02-17T22:46:53.296Z,64.40
2023-02-17T22:49:21.430Z,57.90
2023-02-17T22:51:49.976Z,67.40
2023-02-17T22:54:18.672Z,64.40
2023-02-17T22:56:46.652Z,65.50
2023-02-17T22:59:14.717Z,72.70
2023-02-17T23:01:46.318Z,62.70
2023-02-17T23:04:15.093Z,65.20
2023-02-17T23:06:43.250Z,58.30
2023-02-17T23:09:15.724Z,59.40
2023-02-17T23:11:57.706Z,63.10
2023-02-17T23:14:29.205Z,66.10
2023-02-17T23:17:02.967Z,67.40
2023-02-17T23:22:01.756Z,70.20
2023-02-17T23:24:30.136Z,64.90
2023-02-17T23:27:00.291Z,64.70
2023-02-17T23:29:29.351Z,73.40
2023-02-17T23:31:58.167Z,65.90
2023-02-17T23:34:26.415Z,60.00
2023-02-17T23:36:54.487Z,66.00
2023-02-17T23:39:22.752Z,62.80
2023-02-17T23:41:52.077Z,74.50
2023-02-17T23:44:21.172Z,63.60
2023-02-17T23:46:49.343Z,66.50
2023-02-17T23:49:17.920Z,72.80
2023-02-17T23:51:46.976Z,69.50
2023-02-17T23:54:15.474Z,66.20
2023-02-17T23:56:43.738Z,64.00
2023-02-17T23:59:12.237Z,74.80
